createdAt,value
2022-10-31T00:01:29.031Z,2.00
2022-10-31T00:03:56.972Z,1.67
2022-10-31T00:06:25.198Z,2.30
2022-10-31T00:09:13.180Z,2.37
2022-10-31T00:11:41.020Z,2.27
2022-10-31T00:14:09.066Z,2.60
2022-10-31T00:16:37.144Z,2.23
2022-10-31T00:19:07.646Z,2.03
2022-10-31T00:21:36.439Z,2.20
2022-10-31T00:24:05.070Z,2.47
2022-10-31T00:26:34.493Z,2.23
2022-10-31T00:29:02.983Z,2.33
2022-10-31T00:31:30.986Z,1.80
2022-10-31T00:33:59.591Z,2.70
2022-10-31T00:36:27.381Z,2.53
2022-10-31T00:38:55.197Z,2.20
2022-10-31T00:41:23.043Z,1.83
2022-10-31T00:43:52.206Z,2.10
2022-10-31T00:46:20.031Z,2.50
2022-10-31T00:48:47.856Z,1.63
2022-10-31T00:51:15.653Z,2.10
2022-10-31T00:53:43.456Z,1.80
2022-10-31T00:56:11.940Z,2.53
2022-10-31T00:58:39.822Z,2.30
2022-10-31T01:01:09.044Z,1.90
2022-10-31T01:03:37.034Z,2.80
2022-10-31T01:06:07.853Z,2.20
2022-10-31T01:08:36.055Z,2.23
2022-10-31T01:11:06.520Z,2.30
2022-10-31T01:13:34.701Z,2.17
2022-10-31T01:16:03.456Z,2.97
2022-10-31T01:18:32.875Z,2.10
2022-10-31T01:21:05.451Z,2.67
2022-10-31T01:23:33.466Z,1.80
2022-10-31T01:26:07.057Z,2.40
2022-10-31T01:28:36.185Z,2.20
2022-10-31T01:31:05.851Z,2.10
2022-10-31T01:33:35.460Z,2.03
2022-10-31T01:36:12.350Z,2.70
2022-10-31T01:38:40.251Z,1.90
2022-10-31T01:41:08.153Z,1.83
2022-10-31T01:43:47.209Z,2.20
2022-10-31T01:46:17.412Z,2.10
2022-10-31T01:48:47.416Z,1.60
2022-10-31T01:51:19.565Z,2.33
2022-10-31T01:53:48.987Z,2.13
2022-10-31T01:56:19.277Z,1.97
2022-10-31T01:58:48.298Z,2.57
2022-10-31T02:01:18.354Z,2.40
2022-10-31T02:03:49.060Z,2.30
2022-10-31T02:06:25.119Z,1.73
2022-10-31T02:08:53.446Z,2.33
2022-10-31T02:11:21.674Z,2.10
2022-10-31T02:13:50.169Z,2.23
2022-10-31T02:16:18.045Z,2.30
2022-10-31T02:18:47.248Z,2.17
2022-10-31T02:21:20.159Z,2.27
2022-10-31T02:24:25.083Z,2.27
2022-10-31T02:27:09.534Z,1.90
2022-10-31T02:30:11.851Z,2.10
2022-10-31T02:32:49.624Z,2.47
2022-10-31T02:35:30.135Z,2.23
2022-10-31T02:38:04.597Z,1.93
2022-10-31T02:40:37.691Z,2.00
2022-10-31T02:43:10.778Z,2.30
2022-10-31T02:45:49.178Z,2.00
2022-10-31T02:48:22.730Z,1.70
2022-10-31T02:50:57.615Z,1.80
2022-10-31T02:53:25.449Z,2.27
2022-10-31T02:56:03.146Z,2.10
2022-10-31T02:58:34.611Z,2.03
2022-10-31T03:01:43.513Z,2.10
2022-10-31T03:04:42.262Z,2.30
2022-10-31T03:07:16.899Z,2.50
2022-10-31T03:09:52.502Z,2.30
2022-10-31T03:12:28.463Z,2.10
2022-10-31T03:15:01.369Z,2.20
2022-10-31T03:17:35.791Z,1.73
2022-10-31T03:20:08.433Z,2.13
2022-10-31T03:22:37.643Z,2.30
2022-10-31T03:25:07.102Z,2.20
2022-10-31T03:27:37.546Z,2.67
2022-10-31T03:30:08.649Z,2.17
2022-10-31T03:32:40.452Z,2.27
2022-10-31T03:35:12.047Z,2.00
2022-10-31T03:37:42.570Z,2.10
2022-10-31T03:40:12.618Z,2.13
2022-10-31T03:42:44.001Z,1.73
2022-10-31T03:45:16.870Z,2.10
2022-10-31T03:47:46.023Z,2.47
2022-10-31T03:50:17.383Z,1.97
2022-10-31T03:52:50.077Z,2.50
2022-10-31T03:55:21.520Z,1.70
2022-10-31T03:57:58.217Z,2.10
2022-10-31T04:00:26.638Z,2.07
2022-10-31T04:03:00.671Z,2.10
2022-10-31T04:05:31.608Z,2.23
2022-10-31T04:08:01.124Z,2.40
2022-10-31T04:10:33.189Z,1.90
2022-10-31T04:13:07.083Z,2.00
2022-10-31T04:15:36.899Z,1.77
2022-10-31T04:18:07.122Z,1.70
2022-10-31T04:20:37.525Z,2.00
2022-10-31T04:23:08.849Z,2.10
2022-10-31T04:25:38.853Z,2.37
2022-10-31T04:28:06.744Z,1.87
2022-10-31T04:30:34.592Z,2.30
2022-10-31T04:33:02.724Z,1.87
2022-10-31T04:35:30.899Z,2.17
2022-10-31T04:38:00.211Z,1.90
2022-10-31T04:40:28.007Z,2.30
2022-10-31T04:42:55.834Z,2.17
2022-10-31T04:45:23.669Z,1.87
2022-10-31T04:47:51.464Z,1.73
2022-10-31T04:50:19.440Z,2.60
2022-10-31T04:52:48.122Z,1.73
2022-10-31T04:55:17.546Z,2.20
2022-10-31T04:57:46.743Z,2.17
2022-10-31T05:00:16.309Z,2.07
2022-10-31T05:02:47.789Z,1.93
2022-10-31T05:05:16.831Z,1.73
2022-10-31T05:07:46.723Z,2.27
2022-10-31T05:10:18.287Z,2.17
2022-10-31T05:12:49.811Z,2.10
2022-10-31T05:15:18.449Z,2.00
2022-10-31T05:17:46.359Z,2.20
2022-10-31T05:20:15.506Z,2.30
2022-10-31T05:22:45.407Z,2.30
2022-10-31T05:25:13.392Z,2.00
2022-10-31T05:27:43.274Z,2.00
2022-10-31T05:30:13.514Z,1.80
2022-10-31T05:32:42.181Z,1.80
2022-10-31T05:35:11.876Z,2.57
2022-10-31T05:37:40.096Z,1.60
2022-10-31T05:40:10.652Z,1.90
2022-10-31T05:42:39.946Z,1.70
2022-10-31T05:45:10.516Z,1.80
2022-10-31T05:47:38.334Z,2.20
2022-10-31T05:50:07.220Z,2.07
2022-10-31T05:52:35.289Z,2.23
2022-10-31T05:55:03.071Z,2.57
2022-10-31T05:57:31.383Z,2.80
2022-10-31T05:59:59.203Z,1.87
2022-10-31T06:02:32.547Z,2.30
2022-10-31T06:05:00.440Z,1.90
2022-10-31T06:07:28.342Z,1.97
2022-10-31T06:09:56.124Z,1.87
2022-10-31T06:12:23.949Z,2.30
2022-10-31T06:14:51.758Z,1.73
2022-10-31T06:17:19.555Z,2.13
2022-10-31T06:22:21.438Z,1.93
2022-10-31T06:24:49.243Z,1.90
2022-10-31T06:27:17.044Z,2.10
2022-10-31T06:29:46.695Z,2.37
2022-10-31T06:32:15.004Z,2.00
2022-10-31T06:34:43.410Z,2.07
2022-10-31T06:37:13.891Z,1.90
2022-10-31T06:39:41.841Z,1.90
2022-10-31T06:42:09.680Z,2.00
2022-10-31T06:44:37.486Z,1.90
2022-10-31T06:47:05.350Z,1.90
2022-10-31T06:49:33.175Z,1.93
2022-10-31T06:52:01.027Z,2.47
2022-10-31T06:54:30.196Z,2.30
2022-10-31T06:56:58.051Z,2.17
2022-10-31T06:59:26.094Z,1.97
2022-10-31T07:01:54.030Z,2.33
2022-10-31T07:04:21.938Z,2.00
2022-10-31T07:06:52.165Z,2.30
2022-10-31T07:09:20.116Z,1.70
2022-10-31T07:11:49.287Z,2.03
2022-10-31T07:14:17.108Z,1.60
2022-10-31T07:16:44.965Z,1.80
2022-10-31T07:19:12.862Z,2.00
2022-10-31T07:21:40.705Z,1.67
2022-10-31T07:24:08.725Z,2.10
2022-10-31T07:26:36.520Z,2.13
2022-10-31T07:29:05.817Z,1.67
2022-10-31T07:31:33.618Z,2.43
2022-10-31T07:34:01.567Z,2.10
2022-10-31T07:36:29.407Z,2.17
2022-10-31T07:38:59.319Z,2.10
2022-10-31T07:41:27.619Z,1.60
2022-10-31T07:43:55.448Z,1.87
2022-10-31T07:46:25.314Z,2.07
2022-10-31T07:48:53.125Z,1.80
2022-10-31T07:51:20.968Z,2.00
2022-10-31T07:53:48.770Z,1.90
2022-10-31T07:56:16.639Z,1.80
2022-10-31T07:58:44.513Z,1.80
2022-10-31T08:03:46.409Z,2.20
2022-10-31T08:06:14.200Z,2.20
2022-10-31T08:08:42.044Z,2.20
2022-10-31T08:11:09.857Z,1.90
2022-10-31T08:13:37.672Z,1.73
2022-10-31T08:16:08.334Z,2.47
2022-10-31T08:18:38.388Z,2.20
2022-10-31T08:21:07.632Z,2.20
2022-10-31T08:23:35.449Z,2.50
2022-10-31T08:26:03.294Z,2.10
2022-10-31T08:28:31.101Z,1.90
2022-10-31T08:31:00.079Z,1.90
2022-10-31T08:33:27.970Z,2.00
2022-10-31T08:35:55.826Z,2.30
2022-10-31T08:38:25.006Z,2.23
2022-10-31T08:40:52.865Z,1.80
2022-10-31T08:43:20.819Z,1.73
2022-10-31T08:45:50.839Z,2.10
2022-10-31T08:48:19.684Z,2.43
2022-10-31T08:50:48.147Z,1.67
2022-10-31T08:53:17.902Z,2.00
2022-10-31T08:55:48.263Z,1.80
2022-10-31T08:58:18.879Z,1.97
2022-10-31T09:00:47.590Z,1.73
2022-10-31T09:03:18.130Z,2.00
2022-10-31T09:05:46.755Z,2.07
2022-10-31T09:08:16.923Z,2.27
2022-10-31T09:10:45.253Z,2.33
2022-10-31T09:13:15.657Z,2.47
2022-10-31T09:15:45.862Z,1.70
2022-10-31T09:18:15.271Z,2.00
2022-10-31T09:20:44.169Z,2.13
2022-10-31T09:23:13.837Z,1.70
2022-10-31T09:25:45.057Z,2.07
2022-10-31T09:28:20.210Z,2.10
2022-10-31T09:30:49.674Z,2.60
2022-10-31T09:33:17.980Z,1.87
2022-10-31T09:35:45.937Z,1.90
2022-10-31T09:38:16.058Z,1.67
2022-10-31T09:40:45.375Z,2.00
2022-10-31T09:43:24.520Z,2.00
2022-10-31T09:46:02.797Z,1.90
2022-10-31T09:48:43.845Z,2.10
2022-10-31T09:51:15.706Z,2.17
2022-10-31T09:53:46.589Z,1.90
2022-10-31T09:56:18.122Z,1.90
2022-10-31T09:58:52.234Z,1.90
2022-10-31T10:01:29.845Z,1.57
2022-10-31T10:04:01.424Z,2.10
2022-10-31T10:06:33.117Z,1.93
2022-10-31T10:09:01.356Z,2.00
2022-10-31T10:11:53.610Z,1.77
2022-10-31T10:14:36.892Z,1.90
2022-10-31T10:17:18.951Z,1.90
2022-10-31T10:19:59.043Z,1.90
2022-10-31T10:22:37.632Z,2.10
2022-10-31T10:25:17.322Z,2.13
2022-10-31T10:27:55.247Z,2.13
2022-10-31T10:30:29.050Z,2.07
2022-10-31T10:32:59.828Z,1.80
2022-10-31T10:35:32.170Z,1.87
2022-10-31T10:38:06.058Z,2.07
2022-10-31T10:40:35.132Z,2.40
2022-10-31T10:43:23.951Z,2.20
2022-10-31T10:46:28.630Z,1.70
2022-10-31T10:49:03.142Z,1.73
2022-10-31T10:54:44.466Z,1.93
2022-10-31T10:57:23.623Z,1.80
2022-10-31T10:59:52.725Z,2.27
2022-10-31T11:02:25.644Z,1.77
2022-10-31T11:04:55.750Z,1.90
2022-10-31T11:07:24.103Z,2.17
2022-10-31T11:09:52.048Z,2.10
2022-10-31T11:12:23.902Z,2.07
2022-10-31T11:14:54.373Z,1.77
2022-10-31T11:17:29.894Z,2.30
2022-10-31T11:20:06.693Z,2.30
2022-10-31T11:22:34.716Z,1.97
2022-10-31T11:25:02.546Z,2.00
2022-10-31T11:27:30.379Z,1.83
2022-10-31T11:30:07.441Z,1.93
2022-10-31T11:32:36.714Z,2.03
2022-10-31T11:35:12.876Z,2.00
2022-10-31T11:37:45.652Z,1.93
2022-10-31T11:40:19.902Z,2.07
2022-10-31T11:42:49.106Z,1.73
2022-10-31T11:45:18.604Z,2.03
2022-10-31T11:47:55.284Z,1.93
2022-10-31T11:50:29.487Z,1.93
2022-10-31T11:52:57.853Z,1.70
2022-10-31T11:55:34.554Z,1.90
2022-10-31T11:58:03.229Z,2.30
2022-10-31T12:00:33.300Z,1.83
2022-10-31T12:03:15.994Z,2.07
2022-10-31T12:05:46.076Z,2.77
2022-10-31T12:08:15.282Z,1.93
2022-10-31T12:10:52.110Z,1.80
2022-10-31T12:13:34.340Z,2.10
2022-10-31T12:16:09.903Z,1.50
2022-10-31T12:18:55.315Z,1.97
2022-10-31T12:21:40.301Z,2.10
2022-10-31T12:24:20.307Z,2.10
2022-10-31T12:27:10.923Z,1.90
2022-10-31T12:29:54.602Z,2.23
2022-10-31T12:32:31.742Z,2.33
2022-10-31T12:35:37.764Z,1.63
2022-10-31T12:38:29.013Z,3.40
2022-10-31T12:41:14.742Z,1.70
2022-10-31T12:43:49.386Z,2.10
2022-10-31T12:46:27.460Z,1.93
2022-10-31T12:49:19.923Z,1.80
2022-10-31T12:51:58.243Z,1.90
2022-10-31T12:54:42.770Z,1.80
2022-10-31T12:57:24.362Z,1.80
2022-10-31T12:59:55.332Z,2.00
2022-10-31T13:02:29.105Z,1.90
2022-10-31T13:04:59.309Z,2.40
2022-10-31T13:07:33.188Z,1.90
2022-10-31T13:10:05.681Z,1.90
2022-10-31T13:12:37.445Z,2.10
2022-10-31T13:15:14.314Z,1.80
2022-10-31T13:17:46.562Z,1.60
2022-10-31T13:20:21.507Z,1.57
2022-10-31T13:22:54.936Z,1.90
2022-10-31T13:25:26.475Z,2.00
2022-10-31T13:27:58.836Z,2.10
2022-10-31T13:30:30.550Z,1.57
2022-10-31T13:33:04.192Z,1.87
2022-10-31T13:35:42.659Z,1.87
2022-10-31T13:38:20.888Z,1.90
2022-10-31T13:40:56.650Z,1.50
2022-10-31T13:43:33.008Z,1.90
2022-10-31T13:46:00.889Z,1.90
2022-10-31T13:48:42.209Z,1.87
2022-10-31T13:51:12.077Z,1.77
2022-10-31T13:53:47.006Z,2.20
2022-10-31T13:56:24.221Z,2.10
2022-10-31T13:59:01.204Z,1.90
2022-10-31T14:01:30.627Z,1.90
2022-10-31T14:04:14.064Z,1.83
2022-10-31T14:06:48.170Z,2.00
2022-10-31T14:09:28.526Z,1.83
2022-10-31T14:11:57.479Z,1.77
2022-10-31T14:14:31.826Z,1.93
2022-10-31T14:17:00.483Z,2.07
2022-10-31T14:19:29.004Z,2.00
2022-10-31T14:21:56.924Z,1.57
2022-10-31T14:24:39.146Z,1.80
2022-10-31T14:27:47.333Z,1.60
2022-10-31T14:30:23.387Z,1.83
2022-10-31T14:32:57.212Z,1.60
2022-10-31T14:35:33.837Z,1.53
2022-10-31T14:38:24.545Z,2.30
2022-10-31T14:41:07.603Z,1.97
2022-10-31T14:43:59.560Z,2.33
2022-10-31T14:46:39.439Z,1.77
2022-10-31T14:49:21.696Z,1.87
2022-10-31T14:51:51.823Z,1.70
2022-10-31T14:54:21.935Z,2.03
2022-10-31T14:56:54.965Z,1.73
2022-10-31T14:59:29.447Z,2.00
2022-10-31T15:02:00.841Z,2.20
2022-10-31T15:04:30.976Z,2.20
2022-10-31T15:07:04.963Z,1.53
2022-10-31T15:09:34.993Z,1.77
2022-10-31T15:12:18.611Z,1.83
2022-10-31T15:14:47.805Z,2.07
2022-10-31T15:17:16.328Z,1.60
2022-10-31T15:19:45.192Z,2.00
2022-10-31T15:22:17.893Z,1.97
2022-10-31T15:24:46.748Z,1.77
2022-10-31T15:27:17.012Z,1.57
2022-10-31T15:29:53.944Z,1.70
2022-10-31T15:32:23.875Z,1.70
2022-10-31T15:34:53.236Z,1.90
2022-10-31T15:37:22.097Z,1.57
2022-10-31T15:39:51.160Z,1.87
2022-10-31T15:42:24.696Z,1.70
2022-10-31T15:44:59.868Z,1.50
2022-10-31T15:47:30.694Z,2.40
2022-10-31T15:50:00.503Z,2.03
2022-10-31T15:52:33.269Z,1.70
2022-10-31T15:55:05.451Z,2.30
2022-10-31T15:57:34.621Z,2.30
2022-10-31T16:00:04.553Z,1.40
2022-10-31T16:02:32.455Z,2.00
2022-10-31T16:05:02.411Z,1.97
2022-10-31T16:07:31.393Z,2.10
2022-10-31T16:10:00.871Z,1.90
2022-10-31T16:12:34.373Z,1.80
2022-10-31T16:15:04.811Z,1.70
2022-10-31T16:17:33.330Z,1.70
2022-10-31T16:20:02.925Z,1.80
2022-10-31T16:22:33.762Z,1.87
2022-10-31T16:25:06.899Z,2.00
2022-10-31T16:27:37.211Z,1.87
2022-10-31T16:30:38.625Z,1.53
2022-10-31T16:33:08.034Z,1.50
2022-10-31T16:35:37.385Z,2.23
2022-10-31T16:38:06.382Z,2.20
2022-10-31T16:40:34.878Z,2.07
2022-10-31T16:43:03.517Z,2.00
2022-10-31T16:45:34.816Z,1.83
2022-10-31T16:48:06.580Z,2.07
2022-10-31T16:50:34.781Z,1.80
2022-10-31T16:53:17.969Z,1.93
2022-10-31T16:55:48.081Z,2.00
2022-10-31T16:58:23.529Z,1.77
2022-10-31T17:00:53.501Z,1.53
2022-10-31T17:03:21.585Z,2.77
2022-10-31T17:05:49.536Z,1.97
2022-10-31T17:08:17.686Z,2.43
2022-10-31T17:10:47.552Z,1.70
2022-10-31T17:13:19.679Z,2.33
2022-10-31T17:15:49.601Z,2.00
2022-10-31T17:18:22.929Z,1.93
2022-10-31T17:20:57.875Z,1.90
2022-10-31T17:23:25.714Z,2.03
2022-10-31T17:25:53.731Z,1.90
2022-10-31T17:28:21.631Z,2.17
2022-10-31T17:30:49.545Z,2.30
2022-10-31T17:33:19.094Z,2.20
2022-10-31T17:35:46.963Z,2.80
2022-10-31T17:38:14.944Z,1.90
2022-10-31T17:40:43.125Z,1.90
2022-10-31T17:43:12.079Z,2.57
2022-10-31T17:45:40.865Z,2.30
2022-10-31T17:48:10.393Z,2.27
2022-10-31T17:50:39.576Z,2.10
2022-10-31T17:53:07.420Z,1.90
2022-10-31T17:55:37.114Z,2.40
2022-10-31T17:58:06.291Z,2.07
2022-10-31T18:00:34.543Z,2.23
2022-10-31T18:03:03.689Z,2.30
2022-10-31T18:05:32.245Z,2.10
2022-10-31T18:08:04.005Z,2.20
2022-10-31T18:10:32.401Z,2.00
2022-10-31T18:13:00.649Z,2.60
2022-10-31T18:15:28.741Z,2.30
2022-10-31T18:17:56.565Z,2.23
2022-10-31T18:20:24.420Z,2.40
2022-10-31T18:22:52.223Z,2.20
2022-10-31T18:25:21.378Z,2.20
2022-10-31T18:27:49.207Z,2.43
2022-10-31T18:30:18.075Z,2.80
2022-10-31T18:32:46.053Z,2.50
2022-10-31T18:35:13.902Z,2.23
2022-10-31T18:37:41.715Z,1.90
2022-10-31T18:40:10.552Z,2.63
2022-10-31T18:42:39.708Z,2.00
2022-10-31T18:45:11.940Z,2.37
2022-10-31T18:47:45.051Z,2.20
2022-10-31T18:50:13.291Z,2.57
2022-10-31T18:52:41.090Z,2.10
2022-10-31T18:55:09.803Z,2.50
2022-10-31T18:57:39.004Z,2.00
2022-10-31T19:00:08.288Z,2.50
2022-10-31T19:02:36.204Z,2.40
2022-10-31T19:05:04.211Z,2.60
2022-10-31T19:07:32.132Z,2.20
2022-10-31T19:09:59.957Z,2.03
2022-10-31T19:12:27.775Z,3.00
2022-10-31T19:14:56.908Z,2.50
2022-10-31T19:17:25.432Z,2.57
2022-10-31T19:19:53.256Z,2.07
2022-10-31T19:22:21.079Z,2.27
2022-10-31T19:24:48.900Z,2.50
2022-10-31T19:27:16.750Z,2.27
2022-10-31T19:29:44.560Z,2.40
2022-10-31T19:32:13.754Z,2.50
2022-10-31T19:34:41.540Z,2.70
2022-10-31T19:37:09.368Z,2.63
2022-10-31T19:39:42.764Z,2.30
2022-10-31T19:42:11.892Z,2.50
2022-10-31T19:44:39.721Z,2.57
2022-10-31T19:47:07.581Z,2.80
2022-10-31T19:49:36.738Z,2.70
2022-10-31T19:52:04.731Z,2.50
2022-10-31T19:54:32.556Z,2.90
2022-10-31T19:57:00.415Z,2.90
2022-10-31T19:59:28.209Z,3.10
2022-10-31T20:01:56.105Z,2.80
2022-10-31T20:04:24.092Z,2.67
2022-10-31T20:06:53.406Z,2.60
2022-10-31T20:09:21.204Z,2.43
2022-10-31T20:11:49.080Z,2.90
2022-10-31T20:14:18.431Z,2.80
2022-10-31T20:16:47.057Z,2.80
2022-10-31T20:19:14.879Z,3.00
2022-10-31T20:21:42.936Z,2.87
2022-10-31T20:24:12.842Z,2.60
2022-10-31T20:26:41.720Z,2.97
2022-10-31T20:29:15.700Z,2.93
2022-10-31T20:31:44.341Z,2.60
2022-10-31T20:34:12.232Z,2.73
2022-10-31T20:36:40.102Z,2.93
2022-10-31T20:39:08.046Z,2.60
2022-10-31T20:41:39.525Z,2.70
2022-10-31T20:44:07.691Z,3.03
2022-10-31T20:46:35.678Z,2.70
2022-10-31T20:49:03.676Z,2.53
2022-10-31T20:51:32.278Z,2.97
2022-10-31T20:54:01.123Z,3.13
2022-10-31T20:56:29.918Z,3.00
2022-10-31T20:58:59.554Z,2.40
2022-10-31T21:01:29.261Z,2.77
2022-10-31T21:03:58.368Z,2.90
2022-10-31T21:06:26.648Z,2.90
2022-10-31T21:08:54.864Z,2.97
2022-10-31T21:11:25.036Z,3.20
2022-10-31T21:13:53.897Z,2.77
2022-10-31T21:16:24.479Z,3.20
2022-10-31T21:18:53.046Z,3.30
2022-10-31T21:21:27.585Z,3.00
2022-10-31T21:24:01.743Z,2.50
2022-10-31T21:26:31.350Z,3.20
2022-10-31T21:29:00.202Z,3.03
2022-10-31T21:31:29.391Z,3.40
2022-10-31T21:33:57.590Z,2.53
2022-10-31T21:36:26.143Z,3.03
2022-10-31T21:38:55.078Z,2.90
2022-10-31T21:41:23.819Z,3.37
2022-10-31T21:43:54.227Z,2.80
2022-10-31T21:46:24.494Z,2.60
2022-10-31T21:48:53.924Z,3.10
2022-10-31T21:51:24.025Z,3.10
2022-10-31T21:54:10.092Z,3.47
2022-10-31T21:56:38.589Z,2.77
2022-10-31T21:59:06.912Z,2.90
2022-10-31T22:01:35.641Z,3.13
2022-10-31T22:04:05.541Z,3.20
2022-10-31T22:06:33.724Z,3.20
2022-10-31T22:09:05.145Z,3.47
2022-10-31T22:11:33.266Z,3.00
2022-10-31T22:14:02.422Z,4.20
2022-10-31T22:16:31.666Z,3.67
2022-10-31T22:19:05.033Z,3.03
2022-10-31T22:21:40.906Z,3.23
2022-10-31T22:24:09.930Z,3.40
2022-10-31T22:26:38.045Z,2.97
2022-10-31T22:29:07.531Z,2.87
2022-10-31T22:31:35.724Z,3.37
2022-10-31T22:34:03.560Z,2.73
2022-10-31T22:36:32.086Z,3.37
2022-10-31T22:39:01.740Z,3.37
2022-10-31T22:41:31.693Z,3.13
2022-10-31T22:44:00.201Z,3.23
2022-10-31T22:46:29.620Z,2.83
2022-10-31T22:49:00.085Z,3.60
2022-10-31T22:51:29.808Z,3.10
2022-10-31T22:53:57.976Z,2.90
2022-10-31T22:56:28.777Z,3.30
2022-10-31T22:58:56.873Z,3.10
2022-10-31T23:01:26.793Z,3.67
2022-10-31T23:03:54.952Z,2.57
2022-10-31T23:06:24.099Z,3.13
2022-10-31T23:08:53.229Z,2.83
2022-10-31T23:11:23.426Z,3.00
2022-10-31T23:14:13.663Z,3.00
2022-10-31T23:16:46.937Z,3.20
2022-10-31T23:19:16.617Z,3.20
2022-10-31T23:22:03.248Z,2.70
2022-10-31T23:24:34.514Z,3.73
2022-10-31T23:27:09.825Z,3.00
2022-10-31T23:29:41.870Z,3.40
2022-10-31T23:32:12.235Z,2.97
2022-10-31T23:34:40.286Z,3.40
2022-10-31T23:39:41.191Z,3.10
2022-10-31T23:42:09.592Z,3.20
2022-10-31T23:44:38.840Z,2.93
2022-10-31T23:47:07.203Z,2.80
2022-10-31T23:49:35.324Z,3.40
2022-10-31T23:52:03.530Z,3.30
2022-10-31T23:54:32.117Z,3.10
2022-10-31T23:57:00.161Z,3.30
2022-10-31T23:59:28.996Z,3.10
